Time;durP1;ratioP1;P1;durP2;ratioP2;P2;SDS_P1;SDS_P2;PMS_P1;PMS_P2;Temp;Humidity;BMP_temperature;BMP_pressure;BME280_temperature;BME280_humidity;BME280_pressure;Samples;Min_cycle;Max_cycle;Signal;HPM_P1;HPM_P2
2022/04/11 00:01:47;;;;;;;9.52;2.00;;;7.80;58.80;;;;;;4947524;29;20055;-70
2022/04/11 00:04:15;;;;;;;4.20;1.70;;;7.70;58.80;;;;;;4929508;28;20047;-70
2022/04/11 00:06:42;;;;;;;6.82;2.13;;;7.70;58.70;;;;;;4926972;29;20046;-69
2022/04/11 00:09:10;;;;;;;3.83;1.85;;;7.60;58.50;;;;;;4940654;29;20048;-70
2022/04/11 00:11:38;;;;;;;11.07;1.95;;;7.60;58.40;;;;;;4925975;29;20382;-69
2022/04/11 00:14:05;;;;;;;5.35;2.10;;;7.60;58.20;;;;;;4941431;28;20062;-69
2022/04/11 00:16:34;;;;;;;7.07;1.75;;;7.60;58.20;;;;;;4928206;29;20405;-69
2022/04/11 00:19:02;;;;;;;6.40;2.13;;;7.50;58.20;;;;;;4939366;29;20143;-69
2022/04/11 00:21:30;;;;;;;6.43;2.00;;;7.50;58.30;;;;;;4944583;28;20197;-70
2022/04/11 00:23:57;;;;;;;5.53;1.67;;;7.40;58.40;;;;;;4941684;29;20051;-69
2022/04/11 00:26:25;;;;;;;5.93;2.00;;;7.40;58.60;;;;;;4931310;29;20051;-70
2022/04/11 00:28:53;;;;;;;5.63;1.92;;;7.40;58.60;;;;;;4947852;28;20055;-70
2022/04/11 00:31:21;;;;;;;4.28;1.60;;;7.40;58.60;;;;;;4922700;29;20422;-70
2022/04/11 00:33:49;;;;;;;6.00;1.70;;;7.30;58.40;;;;;;4925728;28;20043;-69
2022/04/11 00:36:16;;;;;;;5.05;1.73;;;7.40;58.40;;;;;;4923922;29;20043;-69
2022/04/11 00:38:44;;;;;;;7.60;1.70;;;7.30;58.40;;;;;;4946618;29;20054;-69
2022/04/11 00:41:12;;;;;;;5.55;1.50;;;7.30;58.40;;;;;;4929211;28;21622;-69
2022/04/11 00:43:40;;;;;;;4.70;1.33;;;7.30;58.30;;;;;;4943415;29;20043;-69
2022/04/11 00:46:09;;;;;;;3.50;1.52;;;7.30;58.10;;;;;;4928946;28;20050;-70
2022/04/11 00:48:37;;;;;;;4.40;1.48;;;7.30;57.90;;;;;;4923557;29;20408;-70
2022/04/11 00:51:14;;;;;;;3.90;1.10;;;7.20;57.60;;;;;;4941422;28;20086;-70
2022/04/11 00:53:44;;;;;;;3.97;1.27;;;7.10;57.20;;;;;;4933623;29;20052;-70
2022/04/11 00:56:15;;;;;;;3.03;1.20;;;7.00;56.60;;;;;;4929804;29;20066;-70
2022/04/11 00:58:43;;;;;;;4.40;1.17;;;7.00;56.30;;;;;;4919767;29;20122;-70
2022/04/11 01:01:11;;;;;;;3.03;1.27;;;7.00;56.10;;;;;;4915382;29;20056;-70
2022/04/11 01:03:39;;;;;;;3.60;1.10;;;6.90;55.80;;;;;;4929209;29;20044;-69
2022/04/11 01:06:07;;;;;;;1.95;1.30;;;6.90;55.40;;;;;;4934129;29;20429;-71
2022/04/11 01:08:37;;;;;;;2.72;0.82;;;6.80;55.30;;;;;;4953721;29;20083;-70
2022/04/11 01:11:06;;;;;;;2.83;1.30;;;6.80;55.00;;;;;;4938124;28;20058;-70
2022/04/11 01:13:34;;;;;;;4.03;1.30;;;6.80;54.90;;;;;;4941803;29;20054;-70
2022/04/11 01:16:04;;;;;;;3.92;1.33;;;6.70;54.80;;;;;;4921908;29;20043;-70
2022/04/11 01:18:36;;;;;;;3.05;1.05;;;6.70;54.70;;;;;;4927940;29;20047;-70
2022/04/11 01:21:08;;;;;;;5.63;1.25;;;6.70;54.50;;;;;;4918871;29;20044;-70
2022/04/11 01:23:36;;;;;;;1.67;1.00;;;6.70;54.40;;;;;;4953688;29;20161;-70
2022/04/11 01:26:06;;;;;;;3.63;1.20;;;6.70;54.30;;;;;;4949004;29;20773;-70
2022/04/11 01:28:40;;;;;;;2.15;0.90;;;6.70;54.20;;;;;;4923644;29;20047;-69
2022/04/11 01:31:10;;;;;;;4.22;1.23;;;6.70;54.20;;;;;;4903999;29;20047;-68
2022/04/11 01:33:37;;;;;;;3.33;1.20;;;6.70;54.10;;;;;;4912933;28;20516;-68
2022/04/11 01:36:07;;;;;;;4.15;1.10;;;6.70;54.00;;;;;;4920879;29;20046;-69
2022/04/11 01:38:35;;;;;;;3.22;1.10;;;6.70;53.70;;;;;;4953098;28;20055;-69
2022/04/11 01:41:03;;;;;;;8.15;1.80;;;6.70;53.60;;;;;;4927963;29;20059;-68
2022/04/11 01:43:31;;;;;;;5.03;1.10;;;6.70;53.50;;;;;;4942893;28;20054;-70
2022/04/11 01:45:59;;;;;;;4.18;1.23;;;6.70;53.60;;;;;;4927214;29;20048;-69
2022/04/11 01:48:36;;;;;;;4.07;1.60;;;6.70;53.70;;;;;;4919682;28;20489;-69
2022/04/11 01:51:05;;;;;;;5.57;1.30;;;6.70;53.80;;;;;;4939832;29;20797;-70
2022/04/11 01:53:32;;;;;;;3.22;1.40;;;6.70;53.90;;;;;;4916668;29;20060;-70
2022/04/11 01:56:00;;;;;;;3.92;1.63;;;6.60;54.10;;;;;;4921847;29;20054;-69
2022/04/11 01:58:29;;;;;;;4.20;1.90;;;6.70;54.40;;;;;;4941667;28;20058;-69
2022/04/11 02:00:58;;;;;;;6.68;1.88;;;6.60;54.70;;;;;;4923682;29;20044;-69
2022/04/11 02:03:30;;;;;;;4.82;1.88;;;6.60;55.00;;;;;;4922801;29;20066;-69
2022/04/11 02:05:58;;;;;;;3.80;2.00;;;6.60;55.40;;;;;;4937833;29;20047;-69
2022/04/11 02:08:25;;;;;;;6.05;2.00;;;6.60;55.70;;;;;;4927082;29;20048;-70
2022/04/11 02:10:59;;;;;;;3.70;2.20;;;6.60;56.00;;;;;;4922275;29;20063;-69
2022/04/11 02:13:28;;;;;;;10.00;2.20;;;6.60;56.40;;;;;;4942156;29;20040;-69
2022/04/11 02:15:56;;;;;;;9.13;1.90;;;6.50;56.60;;;;;;4919198;29;20051;-69
2022/04/11 02:18:24;;;;;;;5.85;1.50;;;6.50;56.80;;;;;;4911964;29;20410;-69
2022/04/11 02:20:52;;;;;;;4.80;1.70;;;6.40;56.80;;;;;;4909022;29;20056;-70
2022/04/11 02:23:20;;;;;;;5.47;1.70;;;6.40;56.90;;;;;;4897758;29;20047;-69
2022/04/11 02:25:47;;;;;;;4.70;1.60;;;6.40;57.10;;;;;;4897540;29;20059;-69
2022/04/11 02:28:15;;;;;;;3.90;1.48;;;6.30;57.10;;;;;;4896590;29;20059;-69
2022/04/11 02:30:43;;;;;;;4.28;1.60;;;6.30;57.10;;;;;;4896729;29;20506;-69
2022/04/11 02:33:10;;;;;;;3.58;1.42;;;6.30;57.20;;;;;;4892063;29;20513;-69
2022/04/11 02:35:39;;;;;;;4.28;1.42;;;6.30;57.20;;;;;;4923965;29;20410;-69
2022/04/11 02:38:07;;;;;;;7.68;1.92;;;6.30;57.20;;;;;;4921464;29;20059;-69
2022/04/11 02:40:36;;;;;;;4.70;1.52;;;6.30;57.20;;;;;;4906100;29;20426;-69
2022/04/11 02:43:24;;;;;;;4.88;1.55;;;6.30;57.20;;;;;;4909989;29;20059;-69
2022/04/11 02:46:04;;;;;;;5.47;1.63;;;6.30;57.10;;;;;;4903398;29;20063;-69
2022/04/11 02:48:37;;;;;;;7.80;2.08;;;6.30;57.10;;;;;;4917385;29;20063;-69
2022/04/11 02:51:10;;;;;;;3.25;1.40;;;6.30;57.00;;;;;;4905072;29;20050;-70
2022/04/11 02:53:50;;;;;;;4.78;1.50;;;6.30;56.90;;;;;;4896856;29;20052;-69
2022/04/11 02:56:17;;;;;;;3.85;1.00;;;6.30;56.80;;;;;;4911487;29;20048;-69
2022/04/11 02:58:45;;;;;;;3.72;1.35;;;6.30;56.70;;;;;;4894676;29;20051;-69
2022/04/11 03:01:14;;;;;;;3.63;1.40;;;6.30;56.70;;;;;;4912848;29;20040;-71
2022/04/11 03:03:45;;;;;;;8.05;1.98;;;6.30;56.60;;;;;;4912172;29;20520;-70
2022/04/11 03:06:13;;;;;;;5.97;1.67;;;6.40;56.60;;;;;;4915222;29;20482;-69
2022/04/11 03:08:44;;;;;;;3.40;1.50;;;6.40;56.60;;;;;;4908812;29;20048;-70
2022/04/11 03:11:16;;;;;;;4.97;1.52;;;6.40;56.40;;;;;;4907174;29;20043;-70
2022/04/11 03:13:48;;;;;;;8.07;2.03;;;6.50;56.30;;;;;;4911942;29;20052;-69
2022/04/11 03:16:17;;;;;;;8.27;2.03;;;6.50;56.10;;;;;;4924584;29;20517;-69
2022/04/11 03:18:47;;;;;;;6.95;2.10;;;6.60;56.00;;;;;;4930657;29;20051;-69
2022/04/11 03:21:15;;;;;;;3.78;1.52;;;6.60;56.00;;;;;;4931440;29;20046;-69
2022/04/11 03:23:49;;;;;;;7.00;1.63;;;6.60;56.00;;;;;;4928723;29;20047;-71
2022/04/11 03:26:17;;;;;;;4.97;1.73;;;6.60;56.10;;;;;;4932227;29;20051;-70
2022/04/11 03:28:44;;;;;;;7.20;2.53;;;6.60;56.30;;;;;;4928494;28;20615;-71
2022/04/11 03:31:12;;;;;;;7.60;2.10;;;6.60;56.30;;;;;;4931653;29;20054;-70
2022/04/11 03:33:41;;;;;;;4.93;2.00;;;6.60;56.50;;;;;;4927286;29;20525;-70
2022/04/11 03:36:09;;;;;;;4.97;2.33;;;6.60;56.60;;;;;;4931554;29;20055;-69
2022/04/11 03:38:37;;;;;;;4.03;2.03;;;6.50;56.80;;;;;;4928089;29;20405;-69
2022/04/11 03:41:07;;;;;;;7.00;2.40;;;6.60;57.00;;;;;;4926399;28;20039;-70
2022/04/11 03:43:35;;;;;;;6.25;2.40;;;6.50;57.10;;;;;;4926981;29;20416;-69
2022/04/11 03:46:03;;;;;;;7.45;2.33;;;6.50;57.30;;;;;;4925141;29;20032;-70
2022/04/11 03:48:31;;;;;;;7.50;2.50;;;6.50;57.40;;;;;;4907821;29;20051;-70
2022/04/11 03:51:01;;;;;;;7.80;2.45;;;6.50;57.70;;;;;;4913076;29;20055;-70
2022/04/11 03:53:35;;;;;;;6.65;2.40;;;6.50;57.90;;;;;;4925618;29;20059;-70
2022/04/11 03:56:03;;;;;;;5.15;2.72;;;6.50;58.00;;;;;;4922920;29;20047;-70
2022/04/11 03:58:31;;;;;;;9.32;2.80;;;6.50;58.20;;;;;;4944243;28;20051;-72
2022/04/11 04:01:02;;;;;;;5.68;2.28;;;6.50;58.40;;;;;;4928644;29;20051;-70
2022/04/11 04:03:31;;;;;;;4.82;2.33;;;6.40;58.50;;;;;;4916098;29;20051;-70
2022/04/11 04:06:03;;;;;;;8.40;2.60;;;6.40;58.50;;;;;;4926188;29;20035;-70
2022/04/11 04:08:36;;;;;;;8.23;2.97;;;6.40;58.70;;;;;;4924626;28;20055;-70
2022/04/11 04:11:11;;;;;;;9.50;2.70;;;6.40;58.90;;;;;;4927721;29;20432;-70
2022/04/11 04:13:47;;;;;;;6.70;2.30;;;6.30;59.00;;;;;;4927202;29;20054;-70
2022/04/11 04:16:16;;;;;;;8.77;2.70;;;6.30;59.30;;;;;;4931307;29;20051;-70
2022/04/11 04:18:51;;;;;;;6.07;2.50;;;6.30;59.50;;;;;;4924074;29;20066;-70
2022/04/11 04:21:18;;;;;;;7.03;2.78;;;6.30;59.70;;;;;;4911382;29;20505;-70
2022/04/11 04:23:47;;;;;;;8.88;2.92;;;6.30;59.90;;;;;;4923506;29;20456;-70
2022/04/11 04:26:19;;;;;;;6.03;2.80;;;6.20;60.10;;;;;;4924647;29;20383;-69
2022/04/11 04:28:46;;;;;;;4.65;2.35;;;6.20;60.30;;;;;;4931839;29;20058;-69
2022/04/11 04:31:14;;;;;;;8.85;2.80;;;6.10;60.50;;;;;;4931794;29;20054;-69
2022/04/11 04:33:42;;;;;;;5.30;2.45;;;6.10;60.70;;;;;;4920750;29;20401;-69
2022/04/11 04:36:12;;;;;;;8.80;2.83;;;6.00;61.10;;;;;;4939146;29;20044;-70
2022/04/11 04:38:40;;;;;;;6.57;2.92;;;6.00;61.10;;;;;;4924521;29;20199;-69
2022/04/11 04:41:08;;;;;;;10.35;3.20;;;5.90;61.60;;;;;;4927324;29;20051;-69
2022/04/11 04:43:36;;;;;;;10.55;3.47;;;5.90;61.70;;;;;;4915963;29;20409;-70
2022/04/11 04:46:04;;;;;;;10.20;3.35;;;5.90;61.90;;;;;;4927064;29;20064;-70
2022/04/11 04:48:43;;;;;;;10.52;3.30;;;5.90;62.30;;;;;;4912935;28;20054;-69
2022/04/11 04:51:11;;;;;;;9.93;3.58;;;5.90;62.70;;;;;;4930875;29;20091;-69
2022/04/11 04:53:45;;;;;;;8.57;3.60;;;5.90;62.90;;;;;;4926906;29;20047;-69
2022/04/11 04:56:13;;;;;;;7.50;3.00;;;5.90;62.80;;;;;;4942277;29;20058;-69
2022/04/11 04:58:46;;;;;;;8.50;3.05;;;5.90;63.10;;;;;;4914681;29;20051;-69
2022/04/11 05:01:15;;;;;;;7.05;3.03;;;6.00;62.90;;;;;;4904690;29;20074;-70
2022/04/11 05:03:43;;;;;;;8.63;3.60;;;5.90;63.10;;;;;;4927134;29;20047;-69
2022/04/11 05:06:15;;;;;;;10.07;3.25;;;5.90;63.30;;;;;;4928059;29;20043;-70
2022/04/11 05:08:44;;;;;;;7.70;3.10;;;5.80;63.30;;;;;;4907930;28;20063;-69
2022/04/11 05:11:13;;;;;;;7.93;3.10;;;5.80;63.50;;;;;;4921345;29;20066;-70
2022/04/11 05:13:42;;;;;;;7.78;3.28;;;5.70;63.80;;;;;;4911098;29;20060;-69
2022/04/11 05:16:11;;;;;;;5.70;3.22;;;5.70;64.00;;;;;;4929835;29;20083;-70
2022/04/11 05:18:40;;;;;;;6.72;3.13;;;5.70;64.40;;;;;;4911676;29;20056;-70
2022/04/11 05:21:08;;;;;;;7.90;3.45;;;5.70;64.50;;;;;;4912202;29;20062;-69
2022/04/11 05:23:35;;;;;;;10.00;3.65;;;5.70;64.70;;;;;;4939035;29;20058;-69
2022/04/11 05:26:07;;;;;;;10.63;3.20;;;5.60;64.80;;;;;;4927655;29;20054;-69
2022/04/11 05:28:37;;;;;;;8.30;3.33;;;5.60;64.90;;;;;;4930192;29;20051;-69
2022/04/11 05:31:05;;;;;;;8.10;3.65;;;5.60;65.10;;;;;;4945449;28;20043;-69
2022/04/11 05:33:38;;;;;;;9.10;4.10;;;5.60;65.30;;;;;;4919447;29;20047;-69
2022/04/11 05:36:09;;;;;;;7.88;3.65;;;5.60;65.40;;;;;;4929385;29;20105;-70
2022/04/11 05:38:37;;;;;;;6.05;3.80;;;5.60;65.60;;;;;;4929504;29;20050;-70
2022/04/11 05:41:06;;;;;;;13.40;3.80;;;5.60;65.60;;;;;;4922990;29;20047;-70
2022/04/11 05:43:45;;;;;;;11.23;4.43;;;5.60;65.70;;;;;;4920886;29;20055;-68
2022/04/11 05:46:14;;;;;;;7.70;3.70;;;5.60;66.00;;;;;;4926617;29;20043;-69
2022/04/11 05:48:48;;;;;;;11.02;4.35;;;5.60;66.30;;;;;;4910410;29;20050;-69
2022/04/11 05:51:16;;;;;;;10.52;4.25;;;5.60;66.30;;;;;;4922017;29;20051;-69
2022/04/11 05:53:44;;;;;;;11.70;4.72;;;5.70;66.40;;;;;;4909749;29;20068;-69
2022/04/11 05:56:11;;;;;;;9.60;4.57;;;5.70;66.50;;;;;;4922988;29;20054;-70
2022/04/11 05:58:39;;;;;;;7.75;4.13;;;5.70;66.70;;;;;;4944122;29;20043;-69
2022/04/11 06:01:07;;;;;;;10.15;4.82;;;5.70;66.70;;;;;;4929652;28;20513;-69
2022/04/11 06:03:38;;;;;;;11.95;4.63;;;5.80;66.80;;;;;;4929245;29;20054;-69
2022/04/11 06:06:06;;;;;;;9.75;4.60;;;5.80;66.70;;;;;;4929387;29;20043;-69
2022/04/11 06:08:36;;;;;;;16.10;4.82;;;5.80;66.70;;;;;;4926835;29;20055;-69
2022/04/11 06:11:04;;;;;;;12.15;5.38;;;5.90;66.80;;;;;;4913102;29;20059;-69
2022/04/11 06:13:32;;;;;;;11.43;4.80;;;5.90;66.80;;;;;;4918093;29;20058;-69
2022/04/11 06:16:01;;;;;;;10.30;4.95;;;6.00;66.80;;;;;;4925068;29;20043;-69
2022/04/11 06:18:31;;;;;;;14.23;5.85;;;6.00;66.90;;;;;;4929163;29;20417;-68
2022/04/11 06:20:59;;;;;;;12.50;5.13;;;6.00;66.90;;;;;;4929804;29;20047;-69
2022/04/11 06:23:28;;;;;;;16.08;5.80;;;6.10;66.90;;;;;;4904345;29;20040;-69
2022/04/11 06:25:57;;;;;;;10.93;6.03;;;6.10;66.80;;;;;;4923548;29;20043;-70
2022/04/11 06:28:27;;;;;;;12.80;5.55;;;6.10;66.80;;;;;;4927837;28;20051;-70
2022/04/11 06:30:56;;;;;;;11.02;5.10;;;6.10;66.80;;;;;;4933750;29;20043;-70
2022/04/11 06:33:24;;;;;;;13.45;5.75;;;6.10;67.10;;;;;;4929339;29;20497;-70
2022/04/11 06:35:52;;;;;;;12.40;6.32;;;6.20;67.00;;;;;;4927371;29;20493;-69
2022/04/11 06:38:20;;;;;;;16.00;6.53;;;6.20;67.00;;;;;;4926407;29;20047;-69
2022/04/11 06:40:49;;;;;;;14.05;7.45;;;6.20;67.00;;;;;;4934059;29;20067;-69
2022/04/11 06:43:19;;;;;;;13.60;6.63;;;6.30;67.00;;;;;;4912782;29;20412;-71
2022/04/11 06:46:01;;;;;;;14.00;6.50;;;6.30;67.10;;;;;;4920391;29;20051;-70
2022/04/11 06:48:33;;;;;;;11.63;7.07;;;6.40;67.00;;;;;;4932874;29;20051;-70
2022/04/11 06:51:00;;;;;;;13.60;6.78;;;6.50;67.10;;;;;;4941862;28;20044;-70
2022/04/11 06:53:28;;;;;;;10.15;6.63;;;6.60;67.10;;;;;;4924268;29;20051;-70
2022/04/11 06:55:56;;;;;;;15.48;7.18;;;6.70;67.00;;;;;;4947000;29;20058;-69
2022/04/11 06:58:27;;;;;;;16.85;7.78;;;6.80;66.80;;;;;;4944786;29;20047;-70
2022/04/11 07:00:55;;;;;;;13.68;7.50;;;6.80;66.70;;;;;;4947860;29;20047;-69
2022/04/11 07:03:22;;;;;;;15.50;8.25;;;6.90;66.60;;;;;;4929367;29;20505;-69
2022/04/11 07:05:50;;;;;;;14.32;8.10;;;7.00;66.60;;;;;;4940752;29;20095;-71
2022/04/11 07:08:18;;;;;;;14.75;7.28;;;7.10;66.50;;;;;;4925747;29;20039;-69
2022/04/11 07:10:47;;;;;;;13.10;7.45;;;7.10;66.40;;;;;;4930685;29;20059;-70
2022/04/11 07:13:15;;;;;;;12.48;7.47;;;7.30;66.50;;;;;;4923185;29;20390;-70
2022/04/11 07:15:42;;;;;;;16.90;8.02;;;7.30;66.50;;;;;;4942789;29;20421;-69
2022/04/11 07:18:10;;;;;;;16.25;7.78;;;7.30;66.40;;;;;;4944585;28;20515;-69
2022/04/11 07:20:38;;;;;;;14.77;7.85;;;7.30;66.40;;;;;;4930095;29;20044;-70
2022/04/11 07:23:06;;;;;;;15.95;7.35;;;7.30;66.50;;;;;;4932388;29;20055;-69
2022/04/11 07:25:33;;;;;;;14.10;7.72;;;7.30;66.40;;;;;;4912320;29;20058;-70
2022/04/11 07:28:01;;;;;;;13.05;7.53;;;7.30;66.40;;;;;;4937432;28;20051;-70
2022/04/11 07:30:29;;;;;;;25.02;7.50;;;7.40;66.30;;;;;;4928196;29;20069;-70
2022/04/11 07:32:56;;;;;;;20.75;8.57;;;7.50;66.30;;;;;;4927849;29;20054;-70
2022/04/11 07:35:24;;;;;;;11.85;7.60;;;7.50;66.20;;;;;;4935175;29;20052;-70
2022/04/11 07:37:52;;;;;;;13.85;7.93;;;7.50;66.10;;;;;;4923218;29;20059;-70
2022/04/11 07:40:19;;;;;;;15.95;7.70;;;7.50;66.00;;;;;;4945476;29;20051;-70
2022/04/11 07:42:47;;;;;;;13.82;7.53;;;7.60;66.00;;;;;;4910483;29;20058;-70
2022/04/11 07:45:15;;;;;;;13.35;7.38;;;7.60;66.00;;;;;;4929340;28;20051;-70
2022/04/11 07:47:42;;;;;;;12.70;7.32;;;7.70;65.90;;;;;;4928000;29;20046;-70
2022/04/11 07:50:10;;;;;;;12.35;7.45;;;7.70;65.90;;;;;;4942793;28;20070;-70
2022/04/11 07:52:38;;;;;;;10.55;6.55;;;7.80;65.80;;;;;;4943424;28;20066;-70
2022/04/11 07:55:09;;;;;;;13.05;7.13;;;7.80;65.70;;;;;;4942922;28;20050;-70
2022/04/11 07:57:36;;;;;;;11.52;6.72;;;8.00;65.50;;;;;;4931984;28;20043;-70
2022/04/11 08:00:22;;;;;;;12.13;6.80;;;8.00;65.30;;;;;;4930703;29;20054;-70
2022/04/11 08:02:53;;;;;;;16.98;7.53;;;8.20;65.10;;;;;;4943658;29;20036;-70
2022/04/11 08:05:22;;;;;;;11.70;6.97;;;8.30;64.80;;;;;;4940038;29;20090;-70
2022/04/11 08:07:50;;;;;;;17.00;7.32;;;8.30;64.60;;;;;;4942460;28;20406;-70
2022/04/11 08:10:19;;;;;;;11.55;7.20;;;8.50;64.30;;;;;;4942779;28;20052;-68
2022/04/11 08:12:54;;;;;;;13.63;7.05;;;8.50;64.30;;;;;;4945623;28;20047;-70
2022/04/11 08:15:24;;;;;;;13.30;7.28;;;8.60;64.20;;;;;;4908878;29;20060;-69
2022/04/11 08:17:54;;;;;;;12.18;7.47;;;8.70;64.20;;;;;;4927764;29;20377;-69
2022/04/11 08:20:23;;;;;;;12.85;6.70;;;8.80;64.00;;;;;;4940289;29;20051;-69
2022/04/11 08:22:51;;;;;;;11.02;6.35;;;8.80;63.60;;;;;;4943326;29;20048;-69
2022/04/11 08:25:19;;;;;;;14.70;6.60;;;8.90;63.30;;;;;;4944813;29;20070;-69
2022/04/11 08:27:48;;;;;;;14.18;6.93;;;9.00;63.10;;;;;;4933464;29;20421;-69
2022/04/11 08:30:16;;;;;;;15.30;6.22;;;9.10;62.90;;;;;;4946814;28;20047;-70
2022/04/11 08:32:51;;;;;;;15.68;6.68;;;9.20;62.80;;;;;;4929899;29;20079;-70
2022/04/11 08:35:20;;;;;;;10.93;6.20;;;9.30;62.50;;;;;;4946030;28;20055;-70
2022/04/11 08:37:49;;;;;;;13.48;6.03;;;9.40;61.90;;;;;;4947867;29;20039;-70
2022/04/11 08:40:21;;;;;;;18.75;6.97;;;9.40;61.40;;;;;;4939259;29;20052;-70
2022/04/11 08:42:51;;;;;;;10.15;6.50;;;9.60;61.40;;;;;;4946840;29;20062;-70
2022/04/11 08:45:21;;;;;;;10.15;6.50;;;9.70;61.20;;;;;;4944726;29;20043;-71
2022/04/11 08:48:01;;;;;;;12.18;6.32;;;9.70;60.50;;;;;;4928041;28;20077;-70
2022/04/11 08:50:30;;;;;;;12.18;6.30;;;9.80;60.60;;;;;;4929160;29;20047;-70
2022/04/11 08:52:58;;;;;;;8.27;5.30;;;9.80;60.30;;;;;;4943427;28;20039;-71
2022/04/11 08:55:27;;;;;;;13.45;5.90;;;9.90;59.80;;;;;;4944955;28;20055;-71
2022/04/11 08:57:59;;;;;;;10.27;5.70;;;9.90;59.30;;;;;;4942072;28;20068;-70
2022/04/11 09:00:28;;;;;;;9.90;6.20;;;10.00;59.40;;;;;;4946998;29;20382;-70
2022/04/11 09:02:56;;;;;;;14.65;5.75;;;10.00;59.30;;;;;;4947348;28;20039;-70
2022/04/11 09:05:25;;;;;;;10.80;5.85;;;10.10;59.10;;;;;;4945152;29;20043;-70
2022/04/11 09:07:55;;;;;;;13.45;4.75;;;10.20;59.00;;;;;;4940467;29;20066;-70
2022/04/11 09:10:28;;;;;;;10.82;5.35;;;10.20;58.80;;;;;;4943869;28;20047;-70
2022/04/11 09:12:57;;;;;;;11.82;5.00;;;10.30;58.30;;;;;;4930841;29;20039;-71
2022/04/11 09:15:26;;;;;;;12.07;4.78;;;10.30;58.20;;;;;;4922862;29;20047;-70
2022/04/11 09:17:56;;;;;;;9.38;5.03;;;10.30;57.40;;;;;;4924854;29;20048;-69
2022/04/11 09:20:28;;;;;;;8.80;4.95;;;10.50;57.70;;;;;;4950244;28;20042;-69
2022/04/11 09:22:57;;;;;;;8.27;4.90;;;10.50;57.70;;;;;;4930500;29;20066;-70
2022/04/11 09:25:29;;;;;;;9.73;4.60;;;10.70;57.40;;;;;;4919476;29;20780;-70
2022/04/11 09:28:12;;;;;;;8.65;4.65;;;10.80;57.00;;;;;;4923281;29;20048;-70
2022/04/11 09:30:43;;;;;;;11.45;4.45;;;10.80;56.50;;;;;;4941828;28;20051;-71
2022/04/11 09:33:12;;;;;;;7.72;4.45;;;10.80;55.90;;;;;;4942852;28;20050;-70
2022/04/11 09:35:43;;;;;;;8.98;4.05;;;10.80;55.50;;;;;;4938861;29;20047;-70
2022/04/11 09:38:16;;;;;;;9.20;3.95;;;10.90;55.50;;;;;;4927256;29;20044;-70
2022/04/11 09:40:48;;;;;;;9.10;3.97;;;11.10;55.20;;;;;;4941949;28;20055;-70
2022/04/11 09:43:27;;;;;;;7.88;4.35;;;11.30;54.90;;;;;;4947062;28;20493;-70
2022/04/11 09:45:56;;;;;;;7.88;4.15;;;11.30;54.20;;;;;;4946151;28;20066;-71
2022/04/11 09:48:25;;;;;;;10.63;4.30;;;11.30;53.90;;;;;;4945999;28;20035;-70
2022/04/11 09:50:54;;;;;;;9.20;3.72;;;11.40;53.10;;;;;;4944072;29;20050;-69
2022/04/11 09:53:29;;;;;;;8.15;3.65;;;11.40;53.10;;;;;;4930711;29;20047;-70
2022/04/11 09:56:00;;;;;;;6.05;4.00;;;11.50;52.60;;;;;;4945347;29;20453;-69
2022/04/11 09:58:28;;;;;;;7.72;4.20;;;11.60;52.20;;;;;;4941854;29;20070;-69
2022/04/11 10:00:58;;;;;;;11.27;4.50;;;11.60;52.40;;;;;;4944288;28;20056;-71
2022/04/11 10:03:28;;;;;;;16.30;3.90;;;11.70;52.10;;;;;;4914506;29;20047;-70
2022/04/11 10:06:02;;;;;;;12.43;4.60;;;11.80;52.20;;;;;;4949480;28;20390;-69
2022/04/11 10:08:31;;;;;;;7.93;4.70;;;11.80;52.30;;;;;;4948767;28;20051;-70
2022/04/11 10:10:59;;;;;;;9.20;4.30;;;11.80;52.10;;;;;;4930063;28;20055;-69
2022/04/11 10:13:29;;;;;;;9.38;4.35;;;11.80;52.10;;;;;;4946974;28;20047;-69
2022/04/11 10:15:58;;;;;;;9.35;4.18;;;11.90;52.50;;;;;;4913868;29;20493;-70
2022/04/11 10:18:27;;;;;;;12.63;4.00;;;12.10;52.60;;;;;;4934228;29;20049;-70
2022/04/11 10:21:06;;;;;;;8.15;4.20;;;12.40;51.70;;;;;;4929870;29;20048;-70
2022/04/11 10:23:59;;;;;;;12.73;5.18;;;12.70;50.90;;;;;;4928799;29;20031;-70
2022/04/11 10:26:42;;;;;;;7.45;4.78;;;13.00;49.90;;;;;;4894357;29;20512;-69
2022/04/11 10:29:36;;;;;;;13.52;4.78;;;13.10;49.70;;;;;;4930558;29;20055;-69
2022/04/11 10:32:24;;;;;;;13.93;4.97;;;13.20;49.40;;;;;;4913932;29;20055;-69
2022/04/11 10:34:58;;;;;;;8.00;4.55;;;13.20;49.10;;;;;;4912744;29;20043;-69
2022/04/11 10:37:51;;;;;;;9.07;4.68;;;13.20;48.60;;;;;;4926374;29;20063;-69
2022/04/11 10:40:19;;;;;;;9.05;4.18;;;13.10;48.80;;;;;;4926318;29;20070;-70
2022/04/11 10:43:07;;;;;;;9.02;4.30;;;13.20;49.00;;;;;;4923803;29;20062;-70
2022/04/11 10:45:56;;;;;;;12.02;4.15;;;13.30;48.60;;;;;;4922224;29;20050;-70
2022/04/11 10:48:56;;;;;;;5.65;3.83;;;13.30;48.10;;;;;;4919380;29;20398;-70
2022/04/11 10:51:24;;;;;;;6.75;3.53;;;13.40;47.70;;;;;;4942054;29;20051;-69
2022/04/11 10:54:15;;;;;;;8.27;4.40;;;13.60;47.90;;;;;;4929573;29;20052;-70
2022/04/11 10:57:02;;;;;;;6.55;3.58;;;13.80;47.60;;;;;;4931136;29;20441;-70
2022/04/11 11:00:06;;;;;;;7.10;3.47;;;13.90;47.10;;;;;;4940022;29;20136;-70
2022/04/11 11:02:49;;;;;;;10.73;3.78;;;14.30;46.40;;;;;;4927055;29;20043;-70
2022/04/11 11:05:28;;;;;;;6.70;4.03;;;14.60;45.90;;;;;;4929539;29;20051;-70
2022/04/11 11:08:11;;;;;;;9.85;3.83;;;15.00;46.20;;;;;;4934878;29;20535;-71
2022/04/11 11:10:43;;;;;;;7.32;3.30;;;15.30;45.30;;;;;;4931328;29;20450;-75
2022/04/11 11:13:35;;;;;;;7.07;4.30;;;15.60;44.40;;;;;;4914444;29;20047;-72
2022/04/11 11:16:11;;;;;;;6.85;3.72;;;15.70;43.00;;;;;;4932433;29;22093;-74
2022/04/11 11:18:49;;;;;;;5.43;4.13;;;15.80;43.00;;;;;;4954577;28;20054;-74
2022/04/11 11:21:19;;;;;;;6.07;3.78;;;15.80;42.30;;;;;;4936641;28;20051;-71
2022/04/11 11:24:06;;;;;;;5.72;3.55;;;15.70;42.30;;;;;;4947751;28;20505;-69
2022/04/11 11:26:45;;;;;;;6.43;3.53;;;15.60;42.20;;;;;;4950311;28;20043;-69
2022/04/11 11:29:28;;;;;;;5.72;3.95;;;15.60;41.40;;;;;;4952360;29;20062;-70
2022/04/11 11:32:06;;;;;;;11.00;3.88;;;15.70;42.10;;;;;;4953715;29;20140;-69
2022/04/11 11:34:38;;;;;;;7.20;4.10;;;15.80;41.90;;;;;;4951989;28;20063;-69
2022/04/11 11:37:10;;;;;;;8.30;4.28;;;15.70;40.80;;;;;;4947969;28;20047;-73
2022/04/11 11:39:43;;;;;;;9.85;4.53;;;15.60;41.40;;;;;;4936954;29;20059;-69
2022/04/11 11:42:14;;;;;;;9.53;4.23;;;15.50;41.60;;;;;;4947773;29;20058;-69
2022/04/11 11:44:49;;;;;;;10.57;4.45;;;15.50;42.10;;;;;;4937279;28;20043;-69
2022/04/11 11:47:26;;;;;;;9.93;4.38;;;15.70;42.60;;;;;;4961287;28;20047;-70
2022/04/11 11:50:01;;;;;;;7.93;4.07;;;15.90;42.30;;;;;;4955624;28;20051;-69
2022/04/11 11:52:29;;;;;;;6.97;3.80;;;16.10;42.00;;;;;;4955067;28;20043;-70
2022/04/11 11:54:56;;;;;;;9.82;4.25;;;16.20;40.70;;;;;;4952108;28;20043;-70
2022/04/11 11:57:25;;;;;;;11.02;4.70;;;16.20;40.90;;;;;;4953189;29;20051;-70
2022/04/11 11:59:59;;;;;;;10.05;3.38;;;16.20;40.90;;;;;;4935704;29;20408;-70
2022/04/11 12:05:24;;;;;;;7.85;3.42;;;16.40;41.00;;;;;;4951351;29;20051;-70
2022/04/11 12:08:14;;;;;;;8.43;3.15;;;16.40;40.20;;;;;;4934137;29;20066;-69
2022/04/11 12:10:44;;;;;;;5.30;3.47;;;16.30;39.60;;;;;;4944718;29;20039;-70
2022/04/11 12:13:24;;;;;;;6.53;4.00;;;16.20;39.60;;;;;;4945118;29;20043;-69
2022/04/11 12:15:52;;;;;;;4.63;3.38;;;16.20;39.70;;;;;;4946976;29;20609;-70
2022/04/11 12:18:19;;;;;;;16.40;3.22;;;16.30;39.10;;;;;;4947268;28;20059;-69
2022/04/11 12:20:47;;;;;;;6.57;3.15;;;16.50;38.70;;;;;;4955056;28;20039;-71
2022/04/11 12:23:17;;;;;;;9.20;3.65;;;16.80;38.80;;;;;;4944128;28;20043;-70
2022/04/11 12:25:48;;;;;;;7.53;3.40;;;17.10;38.40;;;;;;4945610;29;20047;-70
2022/04/11 12:28:21;;;;;;;9.32;3.80;;;17.50;37.50;;;;;;4947354;28;20047;-69
2022/04/11 12:31:12;;;;;;;6.30;3.47;;;17.60;36.70;;;;;;4954247;29;20063;-70
2022/04/11 12:33:49;;;;;;;6.25;3.60;;;17.40;36.90;;;;;;4933802;29;20054;-70
2022/04/11 12:36:17;;;;;;;7.43;3.28;;;17.30;37.80;;;;;;4944526;29;20047;-70
2022/04/11 12:39:11;;;;;;;5.57;3.42;;;17.30;37.30;;;;;;4954305;29;20047;-72
2022/04/11 12:41:49;;;;;;;8.85;3.25;;;17.20;37.90;;;;;;4919842;29;20060;-70
2022/04/11 12:44:36;;;;;;;6.15;3.08;;;17.30;37.50;;;;;;4934523;29;20036;-70
2022/04/11 12:47:05;;;;;;;8.40;3.00;;;17.20;37.50;;;;;;4941057;29;20055;-69
2022/04/11 12:49:56;;;;;;;9.23;3.10;;;17.10;37.80;;;;;;4935163;29;20047;-69
2022/04/11 12:52:26;;;;;;;7.63;2.80;;;16.90;37.90;;;;;;4916729;29;20405;-70
2022/04/11 12:55:04;;;;;;;8.13;2.95;;;16.80;38.10;;;;;;4932717;29;20083;-70
2022/04/11 12:57:34;;;;;;;6.47;2.50;;;16.90;37.90;;;;;;4941970;28;20055;-69
2022/04/11 13:00:14;;;;;;;8.50;2.25;;;17.00;38.10;;;;;;4939152;28;20055;-70
2022/04/11 13:02:41;;;;;;;5.55;2.83;;;17.30;37.10;;;;;;4942757;29;20071;-70
2022/04/11 13:05:13;;;;;;;9.43;2.88;;;17.40;36.60;;;;;;4922009;29;20401;-69
2022/04/11 13:07:59;;;;;;;7.38;2.80;;;17.80;36.60;;;;;;4928314;29;20047;-69
2022/04/11 13:10:28;;;;;;;6.43;2.80;;;18.30;36.30;;;;;;4942518;28;20051;-72
2022/04/11 13:12:57;;;;;;;5.25;2.65;;;18.80;35.30;;;;;;4939349;29;20043;-70
2022/04/11 13:15:26;;;;;;;3.90;2.40;;;18.80;34.80;;;;;;4925161;29;20055;-69